Time;durP1;ratioP1;P1;durP2;ratioP2;P2;SDS_P1;SDS_P2;PMS_P1;PMS_P2;Temp;Humidity;BMP_temperature;BMP_pressure;BME280_temperature;BME280_humidity;BME280_pressure;Samples;Min_cycle;Max_cycle;Signal;HPM_P1;HPM_P2
2021/03/12 00:01:09;;;;;;;8.20;2.10;;;;;;;5.44;73.50;98904.31;5076853;22;20262;-77
2021/03/12 00:03:36;;;;;;;4.30;1.67;;;;;;;5.43;72.99;98907.91;5058829;28;20202;-77
2021/03/12 00:06:05;;;;;;;7.13;1.90;;;;;;;5.37;73.53;98918.03;5041177;28;20203;-78
2021/03/12 00:08:34;;;;;;;4.83;1.67;;;;;;;5.32;73.62;98926.25;5042019;28;20177;-78
2021/03/12 00:10:59;;;;;;;4.33;1.50;;;;;;;5.40;72.69;98929.25;5058668;28;20259;-78
2021/03/12 00:13:25;;;;;;;6.40;1.50;;;;;;;5.36;73.23;98922.47;5041580;28;20329;-78
2021/03/12 00:15:52;;;;;;;4.60;1.43;;;;;;;5.31;72.91;98922.75;5058470;28;20209;-77
2021/03/12 00:18:19;;;;;;;5.83;1.40;;;;;;;5.31;72.35;98925.41;5059722;28;20632;-78
2021/03/12 00:20:45;;;;;;;5.20;1.70;;;;;;;5.32;72.55;98942.13;5040684;28;20674;-78
2021/03/12 00:23:10;;;;;;;3.53;1.00;;;;;;;5.27;72.88;98923.88;5057944;28;20184;-78
2021/03/12 00:25:43;;;;;;;3.87;1.40;;;;;;;5.27;72.83;98939.75;5059058;28;20182;-77
2021/03/12 00:28:10;;;;;;;3.47;1.67;;;;;;;5.20;72.95;98938.44;5041339;28;20597;-78
2021/03/12 00:30:36;;;;;;;5.30;1.37;;;;;;;5.18;72.86;98953.50;5058036;28;20213;-78
2021/03/12 00:33:02;;;;;;;5.80;1.10;;;;;;;5.23;72.78;98958.56;5040266;28;20628;-77
2021/03/12 00:35:28;;;;;;;6.33;1.30;;;;;;;5.07;73.91;98942.75;5039941;28;20183;-77
2021/03/12 00:37:53;;;;;;;6.97;1.57;;;;;;;5.08;73.50;98970.88;5040305;28;20175;-77
2021/03/12 00:40:28;;;;;;;4.97;1.70;;;;;;;5.01;73.78;98966.91;5057018;28;20187;-77
2021/03/12 00:42:53;;;;;;;3.47;1.13;;;;;;;5.03;73.96;98994.97;5040325;28;20191;-77
2021/03/12 00:45:19;;;;;;;3.27;1.10;;;;;;;5.03;73.85;98992.31;5057186;28;20183;-77
2021/03/12 00:47:45;;;;;;;5.67;1.50;;;;;;;4.89;74.21;98980.88;5043156;28;20179;-76
2021/03/12 00:50:12;;;;;;;5.70;1.27;;;;;;;4.94;74.18;98955.00;5060218;28;20188;-77
2021/03/12 00:52:38;;;;;;;5.60;1.30;;;;;;;4.91;74.45;98998.34;5042492;28;20719;-76
2021/03/12 00:55:05;;;;;;;5.77;1.40;;;;;;;4.87;74.42;98991.53;5052978;28;20175;-76
2021/03/12 00:57:30;;;;;;;7.43;1.33;;;;;;;4.86;74.81;98984.56;5052986;28;20176;-76
2021/03/12 00:59:55;;;;;;;5.40;1.33;;;;;;;4.90;74.32;99004.56;5043292;28;20261;-76
2021/03/12 01:02:21;;;;;;;3.57;1.13;;;;;;;4.95;74.15;98978.72;5041979;28;20188;-76
2021/03/12 01:04:46;;;;;;;3.13;1.00;;;;;;;4.88;75.05;98985.31;5060060;28;20520;-76
2021/03/12 01:07:12;;;;;;;5.57;1.20;;;;;;;4.91;74.52;98989.56;5059993;28;20172;-76
2021/03/12 01:09:37;;;;;;;5.97;1.43;;;;;;;4.83;75.10;98986.50;5041660;28;20206;-76
2021/03/12 01:12:03;;;;;;;4.20;1.50;;;;;;;4.77;74.84;99003.56;5059173;28;20171;-76
2021/03/12 01:14:28;;;;;;;5.80;1.77;;;;;;;4.82;74.80;98992.72;5059812;28;20540;-76
2021/03/12 01:16:54;;;;;;;3.57;1.30;;;;;;;4.82;74.99;98984.78;5059102;28;20168;-76
2021/03/12 01:19:19;;;;;;;9.10;1.57;;;;;;;4.79;74.88;98998.19;5058572;28;20230;-77
2021/03/12 01:21:45;;;;;;;5.10;1.07;;;;;;;4.76;74.75;99007.16;5058223;28;20227;-77
2021/03/12 01:24:11;;;;;;;4.90;1.20;;;;;;;4.66;75.23;98972.47;5058295;28;20202;-77
2021/03/12 01:26:37;;;;;;;7.93;1.30;;;;;;;4.60;75.73;98975.50;5058226;28;20258;-77
2021/03/12 01:29:02;;;;;;;4.07;1.10;;;;;;;4.46;76.18;98987.78;5041413;28;20214;-78
2021/03/12 01:31:28;;;;;;;3.87;0.90;;;;;;;4.52;76.18;98974.22;5041980;28;20183;-77
2021/03/12 01:33:53;;;;;;;4.03;1.30;;;;;;;4.42;76.13;98997.66;5059544;28;20175;-78
2021/03/12 01:36:18;;;;;;;4.73;1.30;;;;;;;4.39;76.27;98988.13;5041233;28;20611;-77
2021/03/12 01:38:43;;;;;;;3.33;1.00;;;;;;;4.47;75.70;99000.91;5041180;28;20637;-77
2021/03/12 01:41:09;;;;;;;6.13;1.20;;;;;;;4.53;75.78;98984.72;5041472;28;20207;-77
2021/03/12 01:43:34;;;;;;;3.80;1.20;;;;;;;4.38;76.36;98989.06;5058611;28;20664;-77
2021/03/12 01:46:00;;;;;;;7.10;1.23;;;;;;;4.44;75.85;98993.13;5058934;28;20191;-77
2021/03/12 01:48:25;;;;;;;5.37;1.40;;;;;;;4.44;76.27;99000.22;5059132;28;20255;-77
2021/03/12 01:50:57;;;;;;;2.60;1.10;;;;;;;4.50;75.80;99002.53;5041302;28;20210;-77
2021/03/12 01:53:23;;;;;;;5.20;1.30;;;;;;;4.51;75.99;99004.25;5057795;28;20171;-77
2021/03/12 01:55:49;;;;;;;5.53;1.30;;;;;;;4.49;76.33;99000.84;5040992;28;20182;-77
2021/03/12 01:58:14;;;;;;;3.77;1.33;;;;;;;4.47;76.10;98994.78;5040701;28;20686;-77
2021/03/12 02:00:40;;;;;;;3.03;1.33;;;;;;;4.46;76.20;99009.78;5058003;28;20209;-77
2021/03/12 02:03:10;;;;;;;3.80;1.27;;;;;;;4.50;76.07;99008.66;5040727;28;20191;-76
2021/03/12 02:05:36;;;;;;;4.90;1.20;;;;;;;4.56;76.32;99026.81;5057439;28;20186;-76
2021/03/12 02:08:02;;;;;;;1.80;1.10;;;;;;;4.55;76.31;99009.25;5040742;28;20270;-77
2021/03/12 02:10:28;;;;;;;4.03;1.10;;;;;;;4.37;76.70;99021.69;5057468;28;20218;-76
2021/03/12 02:13:38;;;;;;;2.83;1.07;;;;;;;4.46;76.22;99040.59;5058038;28;20172;-76
2021/03/12 02:16:25;;;;;;;8.10;1.70;;;;;;;4.45;76.88;99037.09;4998044;28;20188;-76
2021/03/12 02:18:57;;;;;;;4.70;1.63;;;;;;;4.39;76.91;99053.31;5040400;28;20548;-75
2021/03/12 02:21:37;;;;;;;6.17;1.43;;;;;;;4.37;76.26;99034.06;5056500;28;20191;-75
2021/03/12 02:24:25;;;;;;;2.93;1.57;;;;;;;4.25;77.03;99040.03;5056058;28;20194;-76
2021/03/12 02:27:08;;;;;;;4.90;1.57;;;;;;;4.13;77.26;99036.28;5039628;28;20184;-76
2021/03/12 02:29:34;;;;;;;7.57;1.60;;;;;;;4.12;77.71;99033.72;5056731;28;20278;-76
2021/03/12 02:32:02;;;;;;;3.73;1.27;;;;;;;4.07;78.29;99050.66;5039623;28;20242;-76
2021/03/12 02:34:32;;;;;;;5.60;1.53;;;;;;;4.14;77.85;99055.63;5039733;28;20194;-75
2021/03/12 02:37:00;;;;;;;5.37;1.63;;;;;;;4.13;77.92;99051.28;5039957;28;20179;-75
2021/03/12 02:39:27;;;;;;;5.53;1.70;;;;;;;4.11;77.50;99043.44;5040007;28;20191;-76
2021/03/12 02:41:55;;;;;;;3.93;1.63;;;;;;;4.18;77.83;99059.78;5040065;28;20192;-76
2021/03/12 02:44:22;;;;;;;3.17;1.23;;;;;;;4.31;77.18;99079.31;5056506;28;20187;-76
2021/03/12 02:46:48;;;;;;;3.00;1.63;;;;;;;4.32;76.58;99060.72;5039403;28;20252;-76
2021/03/12 02:49:14;;;;;;;4.33;1.47;;;;;;;4.30;76.76;99065.25;5039313;28;20203;-76
2021/03/12 02:51:42;;;;;;;5.23;1.40;;;;;;;4.33;76.64;99061.56;5039850;28;20632;-76
2021/03/12 02:54:09;;;;;;;5.13;1.63;;;;;;;4.32;76.40;99065.16;5039659;28;20194;-76
2021/03/12 02:56:35;;;;;;;5.57;1.47;;;;;;;4.28;76.57;99074.19;5056484;28;20262;-76
2021/03/12 02:59:00;;;;;;;5.47;1.30;;;;;;;4.30;77.22;99059.09;5039912;28;20235;-76
2021/03/12 03:01:26;;;;;;;2.67;1.17;;;;;;;4.28;76.83;99053.06;5039911;28;20199;-76
2021/03/12 03:03:52;;;;;;;5.00;1.50;;;;;;;4.18;77.14;99062.44;5039224;28;20666;-76
2021/03/12 03:06:18;;;;;;;5.00;1.33;;;;;;;4.19;76.96;99059.72;5056132;28;20179;-77
2021/03/12 03:08:45;;;;;;;8.17;1.63;;;;;;;4.20;77.12;99071.13;5038645;28;20179;-77
2021/03/12 03:11:12;;;;;;;5.03;1.40;;;;;;;4.18;77.56;99073.84;5056174;28;20178;-77
2021/03/12 03:13:40;;;;;;;5.73;1.67;;;;;;;4.26;76.42;99068.16;5056066;28;20179;-77
2021/03/12 03:16:07;;;;;;;3.70;1.60;;;;;;;4.18;77.14;99073.00;5038941;28;20284;-77
2021/03/12 03:18:34;;;;;;;4.80;1.40;;;;;;;4.19;76.48;99072.91;5055223;28;20209;-76
2021/03/12 03:21:00;;;;;;;8.00;1.73;;;;;;;4.14;76.97;99069.69;5055326;28;20203;-76
2021/03/12 03:23:26;;;;;;;3.27;1.20;;;;;;;4.04;77.41;99079.00;5040210;28;20205;-77
2021/03/12 03:25:54;;;;;;;3.23;1.50;;;;;;;4.12;77.50;99073.34;5040991;28;20179;-77
2021/03/12 03:28:19;;;;;;;6.97;1.70;;;;;;;4.06;77.71;99079.78;5057044;28;20176;-76
2021/03/12 03:30:44;;;;;;;5.53;1.83;;;;;;;4.20;77.41;99082.53;5039935;28;20203;-76
2021/03/12 03:33:10;;;;;;;3.47;1.60;;;;;;;4.23;76.75;99079.72;5056399;28;20611;-76
2021/03/12 03:35:35;;;;;;;5.10;1.73;;;;;;;4.25;76.95;99083.13;5039078;28;20175;-76
2021/03/12 03:38:00;;;;;;;7.17;1.87;;;;;;;4.27;76.38;99077.78;5039207;28;20624;-76
2021/03/12 03:40:26;;;;;;;4.30;1.80;;;;;;;4.21;77.02;99093.94;5055822;28;20206;-76
2021/03/12 03:42:51;;;;;;;5.87;1.77;;;;;;;4.13;77.31;99083.81;5039080;28;20636;-76
2021/03/12 03:45:18;;;;;;;6.70;1.83;;;;;;;4.10;77.68;99081.34;5038741;28;20551;-76
2021/03/12 03:47:45;;;;;;;7.40;2.00;;;;;;;4.12;77.41;99087.38;5039293;28;20309;-77
2021/03/12 03:50:11;;;;;;;5.53;2.00;;;;;;;4.11;77.18;99093.59;5038038;28;20195;-76
2021/03/12 03:52:38;;;;;;;5.90;2.00;;;;;;;4.05;77.75;99100.03;5054288;28;20583;-77
2021/03/12 03:55:06;;;;;;;6.60;1.87;;;;;;;4.02;77.85;99094.94;5037481;28;20182;-77
2021/03/12 03:57:33;;;;;;;9.43;1.93;;;;;;;4.06;77.72;99091.19;5037291;28;20268;-76
2021/03/12 04:00:00;;;;;;;2.53;1.80;;;;;;;3.99;77.81;99096.88;5053544;28;20705;-76
2021/03/12 04:02:26;;;;;;;6.37;2.37;;;;;;;3.97;77.71;99091.69;5037191;28;20204;-76
2021/03/12 04:04:51;;;;;;;2.97;1.83;;;;;;;4.00;77.54;99101.22;5036987;28;20295;-76
2021/03/12 04:07:19;;;;;;;9.07;2.20;;;;;;;3.96;77.81;99102.34;5052822;28;20183;-76
2021/03/12 04:09:47;;;;;;;4.60;2.10;;;;;;;4.02;77.83;99109.91;5035422;28;20278;-76
2021/03/12 04:12:13;;;;;;;6.47;2.27;;;;;;;3.96;78.24;99103.19;5052810;28;20285;-77
2021/03/12 04:14:40;;;;;;;3.57;1.80;;;;;;;3.91;78.44;99099.09;5035630;28;20240;-74
2021/03/12 04:17:06;;;;;;;6.90;2.97;;;;;;;3.93;78.52;99131.53;5053453;28;20171;-76
2021/03/12 04:19:32;;;;;;;4.90;2.37;;;;;;;3.94;78.30;99131.44;5053585;28;20203;-76
2021/03/12 04:21:59;;;;;;;4.17;2.10;;;;;;;3.87;78.68;99127.44;5052795;28;20663;-76
2021/03/12 04:24:24;;;;;;;4.27;1.90;;;;;;;3.93;78.23;99124.47;5051933;28;20666;-76
2021/03/12 04:26:49;;;;;;;6.37;2.10;;;;;;;4.03;77.93;99127.47;5035641;28;20178;-76
2021/03/12 04:29:16;;;;;;;8.20;2.53;;;;;;;4.01;77.87;99130.19;5035770;28;20226;-75
2021/03/12 04:31:41;;;;;;;6.60;2.33;;;;;;;3.98;77.76;99151.47;5035950;28;20258;-75
2021/03/12 04:34:07;;;;;;;3.67;2.10;;;;;;;4.02;77.75;99117.84;5056764;28;20361;-75
2021/03/12 04:36:33;;;;;;;5.77;1.90;;;;;;;4.05;77.24;99120.31;5038064;28;20186;-76
2021/03/12 04:38:59;;;;;;;8.37;2.70;;;;;;;3.99;77.64;99142.63;5036991;28;20228;-75
2021/03/12 04:41:24;;;;;;;6.47;3.00;;;;;;;4.03;77.09;99141.50;5053293;28;20671;-76
2021/03/12 04:43:50;;;;;;;8.40;2.40;;;;;;;3.93;77.75;99142.94;5053298;28;20179;-76
2021/03/12 04:46:16;;;;;;;5.37;2.33;;;;;;;3.99;77.08;99150.53;5036318;28;20175;-75
2021/03/12 04:48:42;;;;;;;4.73;2.20;;;;;;;4.14;76.52;99161.25;5052278;28;20210;-76
2021/03/12 04:51:09;;;;;;;6.40;2.37;;;;;;;4.05;77.16;99167.84;5053158;28;20202;-77
2021/03/12 04:53:34;;;;;;;6.07;2.27;;;;;;;4.05;77.10;99163.41;5035409;28;20211;-76
2021/03/12 04:56:00;;;;;;;7.73;2.70;;;;;;;4.03;77.20;99167.91;5051937;28;20210;-77
2021/03/12 04:58:25;;;;;;;7.40;2.10;;;;;;;4.10;76.99;99164.97;5035553;28;20175;-76
2021/03/12 05:00:51;;;;;;;10.93;2.57;;;;;;;4.10;77.36;99180.81;5035367;28;20699;-76
2021/03/12 05:03:17;;;;;;;13.23;2.70;;;;;;;4.22;76.99;99196.00;5035216;28;20662;-73
2021/03/12 05:05:42;;;;;;;7.90;2.53;;;;;;;4.17;76.90;99175.13;5051699;28;20211;-74
2021/03/12 05:08:09;;;;;;;7.23;2.17;;;;;;;4.24;76.92;99167.72;5051670;28;20175;-74
2021/03/12 05:10:34;;;;;;;7.57;2.30;;;;;;;4.26;76.59;99192.25;5034911;28;20210;-73
2021/03/12 05:13:03;;;;;;;5.87;2.50;;;;;;;4.31;76.30;99177.03;5035131;28;20167;-74
2021/03/12 05:15:28;;;;;;;7.63;3.10;;;;;;;4.36;76.04;99204.03;5034810;28;20180;-74
2021/03/12 05:17:54;;;;;;;6.40;2.47;;;;;;;4.38;76.06;99195.09;5051572;28;20172;-73
2021/03/12 05:20:19;;;;;;;9.40;2.63;;;;;;;4.37;76.18;99196.03;5051513;28;20624;-74
2021/03/12 05:22:44;;;;;;;8.10;2.47;;;;;;;4.32;76.53;99205.16;5035112;28;20199;-74
2021/03/12 05:25:10;;;;;;;7.67;2.47;;;;;;;4.29;76.31;99223.78;5052127;28;20183;-74
2021/03/12 05:27:35;;;;;;;10.27;2.70;;;;;;;4.32;76.57;99203.34;5051898;28;20176;-74
2021/03/12 05:30:00;;;;;;;3.87;2.10;;;;;;;4.27;76.52;99202.75;5052988;28;20234;-74
2021/03/12 05:32:26;;;;;;;9.67;2.60;;;;;;;4.26;76.78;99208.97;5036573;28;20163;-74
2021/03/12 05:34:51;;;;;;;5.03;2.60;;;;;;;4.21;76.98;99181.94;5055050;28;20176;-74
2021/03/12 05:37:16;;;;;;;6.03;2.40;;;;;;;4.26;76.44;99219.53;5056480;28;20176;-74
2021/03/12 05:39:42;;;;;;;10.37;2.83;;;;;;;4.23;76.51;99208.28;5055106;28;20198;-74
2021/03/12 05:42:07;;;;;;;5.80;2.53;;;;;;;4.32;76.19;99213.06;5038749;28;20203;-70
2021/03/12 05:44:33;;;;;;;3.57;2.10;;;;;;;4.33;76.35;99214.78;5037752;28;20215;-66
2021/03/12 05:46:59;;;;;;;7.70;2.60;;;;;;;4.35;76.43;99223.47;5055124;28;20182;-73
2021/03/12 05:49:24;;;;;;;9.90;2.70;;;;;;;4.31;76.20;99227.22;5055266;28;20299;-73
2021/03/12 05:51:50;;;;;;;11.17;2.87;;;;;;;4.25;76.17;99216.97;5055084;28;20548;-73
2021/03/12 05:54:16;;;;;;;7.47;2.80;;;;;;;4.31;76.02;99212.22;5055139;28;20183;-72
2021/03/12 05:56:41;;;;;;;7.67;2.70;;;;;;;4.25;76.17;99243.38;5055073;28;20176;-73
2021/03/12 05:59:10;;;;;;;10.43;2.73;;;;;;;4.23;76.19;99222.34;5055031;28;20203;-71
2021/03/12 06:01:35;;;;;;;11.43;2.83;;;;;;;4.30;75.44;99241.34;5094110;22;20252;-72
2021/03/12 06:04:00;;;;;;;11.57;3.37;;;;;;;4.27;76.29;99242.38;5074580;28;20577;-72
2021/03/12 06:06:26;;;;;;;5.50;2.50;;;;;;;4.27;76.23;99241.50;5074364;28;20265;-72
2021/03/12 06:08:52;;;;;;;7.20;2.47;;;;;;;4.29;76.02;99243.13;5057442;28;20689;-72
2021/03/12 06:11:18;;;;;;;7.87;3.07;;;;;;;4.25;76.51;99246.88;5074318;28;20547;-72
2021/03/12 06:13:51;;;;;;;8.80;3.20;;;;;;;4.33;75.85;99279.03;5074625;28;20178;-73
2021/03/12 06:16:24;;;;;;;13.87;4.00;;;;;;;4.46;75.28;99279.25;5076004;28;20257;-71
2021/03/12 06:19:09;;;;;;;10.00;3.13;;;;;;;4.54;74.57;99263.84;5074040;28;20155;-72
2021/03/12 06:21:34;;;;;;;8.30;3.17;;;;;;;4.58;74.74;99262.75;5074004;28;20251;-72
2021/03/12 06:23:59;;;;;;;9.23;3.17;;;;;;;4.57;74.50;99268.09;5073900;28;20186;-72
2021/03/12 06:26:42;;;;;;;5.17;2.60;;;;;;;4.62;74.38;99279.28;5075546;28;20185;-72
2021/03/12 06:29:08;;;;;;;7.40;3.00;;;;;;;4.63;74.46;99278.34;5074368;28;20163;-72
2021/03/12 06:31:34;;;;;;;8.67;3.37;;;;;;;4.66;74.29;99283.47;5074957;28;20198;-73
2021/03/12 06:34:10;;;;;;;9.17;3.23;;;;;;;4.76;73.80;99294.41;5057179;28;20542;-72
2021/03/12 06:36:35;;;;;;;9.33;3.40;;;;;;;4.70;74.06;99325.50;5057176;28;20680;-71
2021/03/12 06:39:00;;;;;;;5.70;2.87;;;;;;;4.72;73.78;99294.56;5074164;28;20250;-74
2021/03/12 06:41:45;;;;;;;12.20;3.00;;;;;;;4.77;73.46;99302.25;5073921;28;20191;-72
2021/03/12 06:44:26;;;;;;;8.57;3.10;;;;;;;4.81;74.05;99311.72;5072572;28;20175;-73
2021/03/12 06:46:52;;;;;;;10.03;3.17;;;;;;;4.85;73.34;99302.72;5059436;28;20174;-72
2021/03/12 06:49:17;;;;;;;10.07;3.47;;;;;;;4.89;73.03;99319.25;5074359;28;20179;-72
2021/03/12 06:51:52;;;;;;;12.40;3.37;;;;;;;4.87;72.98;99316.69;5074016;28;20201;-72
2021/03/12 06:54:18;;;;;;;7.90;3.10;;;;;;;4.93;72.65;99328.72;5073921;28;20625;-72
2021/03/12 06:56:43;;;;;;;9.83;3.50;;;;;;;4.89;73.31;99325.41;5073611;28;20258;-72
2021/03/12 06:59:08;;;;;;;12.63;3.63;;;;;;;4.76;74.59;99337.53;5056652;28;20178;-73
2021/03/12 07:01:34;;;;;;;11.47;4.00;;;;;;;4.75;74.87;99341.13;5073268;28;20232;-72
2021/03/12 07:04:09;;;;;;;11.43;3.83;;;;;;;4.65;75.41;99372.47;5074564;28;20171;-72
2021/03/12 07:06:44;;;;;;;8.87;3.73;;;;;;;4.51;75.51;99361.78;5056663;28;20198;-71
2021/03/12 07:09:10;;;;;;;7.77;3.60;;;;;;;4.39;76.53;99360.59;5073285;28;20178;-71
2021/03/12 07:11:35;;;;;;;8.57;3.33;;;;;;;4.18;77.33;99369.63;5073090;28;20198;-73
2021/03/12 07:14:01;;;;;;;9.40;2.80;;;;;;;4.24;73.50;99350.81;5072927;28;20173;-72
2021/03/12 07:16:26;;;;;;;5.00;2.77;;;;;;;4.30;74.19;99371.63;5073034;28;20174;-72
2021/03/12 07:18:53;;;;;;;15.00;3.50;;;;;;;4.38;74.09;99368.59;5056193;28;20197;-72
2021/03/12 07:21:20;;;;;;;9.03;2.60;;;;;;;4.49;73.41;99368.91;5072831;28;20701;-72
2021/03/12 07:23:48;;;;;;;9.20;3.43;;;;;;;4.61;72.80;99375.34;5072901;28;20178;-72
2021/03/12 07:26:15;;;;;;;10.03;3.50;;;;;;;4.72;72.78;99371.22;5074359;28;20174;-71
2021/03/12 07:28:42;;;;;;;9.67;3.20;;;;;;;4.71;72.31;99390.66;5072683;28;20182;-72
2021/03/12 07:31:09;;;;;;;5.63;2.50;;;;;;;4.80;72.01;99401.69;5056106;28;20193;-71
2021/03/12 07:33:36;;;;;;;6.87;2.77;;;;;;;4.87;71.88;99397.81;5072534;28;20607;-73
2021/03/12 07:36:05;;;;;;;5.60;2.70;;;;;;;4.91;71.82;99391.41;5056122;28;20245;-72
2021/03/12 07:38:33;;;;;;;9.27;3.43;;;;;;;5.04;71.77;99424.19;5073185;28;20179;-71
2021/03/12 07:40:59;;;;;;;6.47;3.13;;;;;;;5.27;71.03;99426.50;5072582;28;20187;-73
2021/03/12 07:43:24;;;;;;;4.17;2.80;;;;;;;5.31;71.42;99396.28;5056456;28;20240;-71
2021/03/12 07:45:50;;;;;;;9.50;3.47;;;;;;;5.12;71.92;99411.41;5073912;28;20524;-71
2021/03/12 07:48:15;;;;;;;8.23;3.40;;;;;;;5.22;72.00;99423.25;5055371;28;20194;-71
2021/03/12 07:50:41;;;;;;;6.63;2.70;;;;;;;5.18;71.44;99432.25;5055721;28;20533;-72
2021/03/12 07:53:07;;;;;;;7.27;2.77;;;;;;;5.25;69.73;99433.66;5072474;28;20175;-71
2021/03/12 07:55:35;;;;;;;6.43;2.83;;;;;;;5.06;70.77;99464.66;5071723;28;20167;-73
2021/03/12 07:58:08;;;;;;;11.77;3.47;;;;;;;4.69;74.56;99448.03;5073251;28;20167;-70
2021/03/12 08:01:05;;;;;;;12.93;3.30;;;;;;;4.50;74.26;99456.97;5071935;28;20551;-71
2021/03/12 08:03:32;;;;;;;6.90;2.63;;;;;;;4.38;72.73;99435.50;5072239;28;20190;-72
2021/03/12 08:05:57;;;;;;;10.50;3.10;;;;;;;4.31;73.68;99457.84;5055377;28;20171;-71
2021/03/12 08:08:37;;;;;;;9.03;3.30;;;;;;;4.33;73.73;99471.84;5072211;28;20559;-71
2021/03/12 08:11:30;;;;;;;15.50;3.47;;;;;;;4.33;74.60;99463.91;5071927;28;20194;-72
2021/03/12 08:14:07;;;;;;;6.97;3.07;;;;;;;4.32;75.71;99469.28;5071836;28;20171;-72
2021/03/12 08:16:33;;;;;;;11.87;3.57;;;;;;;4.44;75.84;99465.16;5073278;28;20177;-72
2021/03/12 08:19:27;;;;;;;9.67;3.23;;;;;;;4.51;75.62;99475.38;5071943;28;20179;-72
2021/03/12 08:21:52;;;;;;;8.47;3.03;;;;;;;4.58;75.40;99468.84;5072430;28;20193;-72
2021/03/12 08:24:47;;;;;;;9.43;3.20;;;;;;;4.57;75.65;99475.06;5072363;28;20190;-72
2021/03/12 08:27:38;;;;;;;12.00;3.50;;;;;;;4.75;74.16;99472.44;5073712;28;20187;-72
2021/03/12 08:30:05;;;;;;;7.67;3.00;;;;;;;5.17;70.71;99487.88;5073895;28;20551;-72
2021/03/12 08:32:33;;;;;;;8.23;3.00;;;;;;;5.44;69.39;99459.13;5071796;28;20179;-72
2021/03/12 08:34:59;;;;;;;7.53;2.73;;;;;;;5.77;66.81;99485.56;5071809;28;20668;-72
2021/03/12 08:37:28;;;;;;;7.27;2.77;;;;;;;5.97;65.29;99481.88;5055438;28;20269;-71
2021/03/12 08:40:14;;;;;;;10.20;2.90;;;;;;;6.05;63.37;99512.28;5073430;28;20237;-72
2021/03/12 08:43:00;;;;;;;6.53;2.30;;;;;;;6.24;62.42;99481.16;5073190;28;20186;-72
2021/03/12 08:45:44;;;;;;;10.47;2.90;;;;;;;6.36;60.62;99454.94;5073759;28;20236;-71
2021/03/12 08:48:15;;;;;;;12.50;2.67;;;;;;;6.44;60.87;99495.94;5072147;28;20159;-71
2021/03/12 08:50:53;;;;;;;14.33;5.37;;;;;;;6.70;59.75;99514.81;5054640;28;20562;-72
2021/03/12 08:53:21;;;;;;;15.33;4.27;;;;;;;6.93;59.44;99505.50;5072012;28;20250;-71
2021/03/12 08:55:50;;;;;;;10.57;4.97;;;;;;;7.05;56.89;99500.31;5071476;28;20171;-72
2021/03/12 08:58:27;;;;;;;10.17;3.60;;;;;;;7.10;55.33;99497.41;5071477;28;20168;-71
2021/03/12 09:00:57;;;;;;;9.37;2.87;;;;;;;7.06;56.40;99496.75;5071414;28;20207;-71
2021/03/12 09:03:23;;;;;;;14.43;5.80;;;;;;;7.18;57.19;99517.22;5072393;28;20186;-72
2021/03/12 09:06:01;;;;;;;10.27;2.33;;;;;;;7.52;55.86;99512.53;5054996;28;20551;-72
2021/03/12 09:08:28;;;;;;;6.27;2.20;;;;;;;7.55;53.35;99522.97;5058184;28;20252;-71
2021/03/12 09:10:53;;;;;;;6.23;2.03;;;;;;;7.30;53.29;99499.72;5075246;28;20217;-72
2021/03/12 09:13:24;;;;;;;10.50;2.23;;;;;;;7.42;53.25;99504.25;5075292;28;20172;-71
2021/03/12 09:15:50;;;;;;;10.43;2.70;;;;;;;7.54;54.44;99523.91;5075100;28;20163;-72
2021/03/12 09:18:18;;;;;;;6.53;1.87;;;;;;;7.51;52.71;99543.53;5059316;28;20176;-72
2021/03/12 09:20:47;;;;;;;10.23;2.57;;;;;;;7.29;53.10;99505.09;5075838;28;20283;-71
2021/03/12 09:23:12;;;;;;;10.87;2.20;;;;;;;7.30;52.97;99517.44;5076231;28;20200;-72
2021/03/12 09:25:38;;;;;;;10.83;2.00;;;;;;;7.23;52.98;99540.84;5077155;28;20669;-72
2021/03/12 09:28:08;;;;;;;8.50;2.10;;;;;;;7.06;52.90;99517.09;5074698;28;20184;-70
2021/03/12 09:30:45;;;;;;;9.67;2.10;;;;;;;7.13;53.38;99527.25;5075149;28;20202;-71
2021/03/12 09:33:28;;;;;;;8.80;2.37;;;;;;;7.29;52.69;99537.81;5058370;28;20185;-73
2021/03/12 09:35:54;;;;;;;7.57;2.13;;;;;;;7.05;51.12;99529.50;5075317;28;20194;-71
2021/03/12 09:38:38;;;;;;;11.53;1.93;;;;;;;6.92;51.38;99559.50;5074932;28;20645;-71
2021/03/12 09:41:39;;;;;;;7.67;2.33;;;;;;;6.90;50.79;99563.09;5075034;28;20201;-72
2021/03/12 09:44:15;;;;;;;8.33;2.10;;;;;;;6.85;52.25;99565.16;5054054;28;20279;-72
2021/03/12 09:46:44;;;;;;;7.50;2.50;;;;;;;6.99;53.02;99529.00;5055267;28;20183;-72
2021/03/12 09:49:30;;;;;;;8.67;2.33;;;;;;;7.22;53.22;99545.28;5074480;28;20193;-72
2021/03/12 09:51:58;;;;;;;5.40;2.17;;;;;;;7.47;53.39;99555.31;5074635;28;20158;-72
2021/03/12 09:54:25;;;;;;;7.17;1.93;;;;;;;7.82;53.33;99569.09;5057607;28;20229;-72
2021/03/12 09:56:55;;;;;;;9.53;2.40;;;;;;;7.93;52.43;99576.38;5074307;28;20221;-72
2021/03/12 09:59:26;;;;;;;12.67;2.40;;;;;;;7.73;52.25;99542.22;5074200;28;20216;-71
2021/03/12 10:01:52;;;;;;;4.07;1.80;;;;;;;7.83;51.20;99561.97;5074314;28;20178;-73
2021/03/12 10:04:24;;;;;;;5.93;1.83;;;;;;;7.69;50.66;99551.31;5076226;28;20643;-72
2021/03/12 10:07:08;;;;;;;8.30;2.27;;;;;;;7.55;51.37;99538.03;5075840;28;20194;-72
2021/03/12 10:09:35;;;;;;;8.40;1.90;;;;;;;7.69;50.27;99584.03;5075851;28;20206;-72
2021/03/12 10:12:01;;;;;;;7.70;2.03;;;;;;;7.83;50.82;99586.75;5074571;28;20194;-72
2021/03/12 10:14:40;;;;;;;10.30;2.23;;;;;;;7.51;50.33;99553.31;5074742;28;20683;-71
2021/03/12 10:17:12;;;;;;;6.47;1.60;;;;;;;7.42;51.17;99578.59;5074216;28;20168;-71
2021/03/12 10:19:51;;;;;;;4.97;1.73;;;;;;;7.57;49.64;99576.84;5075565;28;20191;-71
2021/03/12 10:22:29;;;;;;;4.80;1.77;;;;;;;7.74;48.76;99560.72;5074313;28;20655;-72
2021/03/12 10:25:15;;;;;;;5.23;1.80;;;;;;;7.83;48.02;99572.59;5074504;28;20165;-73
2021/03/12 10:27:50;;;;;;;5.60;1.60;;;;;;;8.27;47.91;99591.09;5075516;28;20532;-72
2021/03/12 10:30:21;;;;;;;5.40;1.60;;;;;;;8.20;47.58;99565.00;5074348;28;20562;-72
2021/03/12 10:32:48;;;;;;;5.67;1.40;;;;;;;8.19;47.64;99577.44;5075308;28;20174;-72
2021/03/12 10:35:25;;;;;;;14.63;2.10;;;;;;;8.58;46.55;99599.81;5057557;28;20649;-72
2021/03/12 10:38:12;;;;;;;10.37;1.87;;;;;;;8.46;47.03;99573.03;5057262;28;20668;-72
2021/03/12 10:40:39;;;;;;;8.23;1.70;;;;;;;8.41;47.63;99643.41;5075275;28;20263;-72
2021/03/12 10:43:17;;;;;;;6.13;1.70;;;;;;;8.76;47.91;99599.47;5073865;28;20709;-71
2021/03/12 10:45:53;;;;;;;5.83;1.57;;;;;;;8.70;47.40;99602.53;5073652;28;20227;-71
2021/03/12 10:48:20;;;;;;;5.00;1.60;;;;;;;8.43;48.22;99591.84;5075364;28;20263;-72
2021/03/12 10:50:53;;;;;;;8.93;1.97;;;;;;;8.68;47.72;99601.78;5074117;28;20269;-72
2021/03/12 10:53:18;;;;;;;8.47;1.93;;;;;;;8.59;47.10;99655.56;5074579;28;20180;-71
2021/03/12 10:55:51;;;;;;;10.13;1.60;;;;;;;8.35;47.64;99598.59;5057057;28;20170;-72
2021/03/12 10:58:30;;;;;;;9.40;2.03;;;;;;;8.13;47.35;99628.28;5057114;28;20169;-72
2021/03/12 11:01:14;;;;;;;10.53;1.60;;;;;;;8.07;48.61;99602.09;5074694;28;20720;-72
2021/03/12 11:03:42;;;;;;;5.53;1.93;;;;;;;8.20;48.35;99608.38;5073364;28;20209;-72
2021/03/12 11:06:09;;;;;;;10.57;1.70;;;;;;;8.60;48.04;99619.19;5074946;28;20177;-72
2021/03/12 11:08:35;;;;;;;7.77;1.80;;;;;;;8.71;47.53;99614.88;5056502;28;20194;-71
2021/03/12 11:11:01;;;;;;;6.60;1.43;;;;;;;9.19;47.34;99604.63;5073342;28;20362;-72
2021/03/12 11:13:26;;;;;;;6.33;1.43;;;;;;;10.16;43.97;99614.88;5074799;28;20253;-73
2021/03/12 11:15:52;;;;;;;5.13;1.90;;;;;;;9.51;45.94;99589.16;5073621;28;20614;-72
2021/03/12 11:18:17;;;;;;;4.77;1.50;;;;;;;9.95;44.98;99599.41;5073405;28;20598;-72
2021/03/12 11:20:43;;;;;;;13.07;1.80;;;;;;;9.96;43.76;99621.59;5073220;28;20198;-72
2021/03/12 11:23:10;;;;;;;6.00;1.50;;;;;;;9.58;44.50;99606.41;5073302;28;20206;-72
2021/03/12 11:25:36;;;;;;;2.50;1.17;;;;;;;10.43;42.99;99607.63;5073246;28;20543;-72
2021/03/12 11:28:02;;;;;;;6.07;1.63;;;;;;;11.09;41.13;99634.84;5073983;28;20248;-72
2021/03/12 11:30:27;;;;;;;3.57;1.40;;;;;;;10.11;43.99;99612.53;5073328;28;20200;-72
2021/03/12 11:32:53;;;;;;;8.97;2.03;;;;;;;9.10;45.81;99623.88;5074295;28;20261;-73
2021/03/12 11:35:18;;;;;;;6.53;1.80;;;;;;;8.51;47.82;99611.78;5074256;28;20715;-72
2021/03/12 11:37:44;;;;;;;10.47;2.20;;;;;;;8.33;48.27;99612.00;5056398;28;20205;-72
2021/03/12 11:40:11;;;;;;;7.30;1.47;;;;;;;8.23;47.89;99656.03;5056113;28;20684;-71
2021/03/12 11:42:38;;;;;;;5.97;1.57;;;;;;;8.51;47.32;99619.75;5072555;28;20285;-72
2021/03/12 11:45:05;;;;;;;2.33;1.17;;;;;;;9.28;45.20;99611.13;5076561;28;20208;-72
2021/03/12 11:47:31;;;;;;;6.93;1.53;;;;;;;9.33;46.21;99615.22;5073629;28;20205;-72